Time;durP1;ratioP1;P1;durP2;ratioP2;P2;SDS_P1;SDS_P2;PMS_P1;PMS_P2;Temp;Humidity;BMP_temperature;BMP_pressure;BME280_temperature;BME280_humidity;BME280_pressure;Samples;Min_cycle;Max_cycle;Signal;HPM_P1;HPM_P2
2022/04/20 00:01:54;;;;;;;0.50;0.40;;;8.90;99.90;;;;;;5052000;28;20306;-76
2022/04/20 00:04:22;;;;;;;0.50;0.40;;;8.90;99.90;;;;;;5052150;28;20717;-76
2022/04/20 00:06:49;;;;;;;0.50;0.40;;;8.90;99.90;;;;;;5052239;28;20606;-76
2022/04/20 00:09:16;;;;;;;0.50;0.40;;;8.70;99.90;;;;;;5051166;28;20777;-76
2022/04/20 00:11:43;;;;;;;0.50;0.40;;;8.70;99.90;;;;;;5052153;28;20765;-76
2022/04/20 00:14:09;;;;;;;0.50;0.40;;;8.60;99.90;;;;;;5052214;28;20245;-76
2022/04/20 00:16:36;;;;;;;0.50;0.40;;;8.60;99.90;;;;;;5052005;28;20623;-76
2022/04/20 00:19:02;;;;;;;0.50;0.40;;;8.60;99.90;;;;;;5051299;28;20219;-76
2022/04/20 00:21:30;;;;;;;0.50;0.40;;;8.50;99.90;;;;;;5051925;28;20339;-77
2022/04/20 00:23:57;;;;;;;0.50;0.40;;;8.50;99.90;;;;;;5052075;28;20688;-76
2022/04/20 00:26:24;;;;;;;0.50;0.40;;;8.40;99.90;;;;;;5051844;28;20255;-76
2022/04/20 00:28:50;;;;;;;0.50;0.40;;;8.30;99.90;;;;;;5051411;28;20667;-76
2022/04/20 00:31:18;;;;;;;0.50;0.40;;;8.20;99.90;;;;;;5051498;28;20260;-76
2022/04/20 00:33:45;;;;;;;0.50;0.40;;;8.10;99.90;;;;;;5051753;28;20207;-76
2022/04/20 00:36:12;;;;;;;0.50;0.40;;;8.10;99.90;;;;;;5051720;28;20199;-76
2022/04/20 00:38:40;;;;;;;0.50;0.40;;;8.00;99.90;;;;;;5051229;28;20202;-77
2022/04/20 00:41:08;;;;;;;0.50;0.40;;;7.90;99.90;;;;;;5051681;28;20256;-76
2022/04/20 00:43:34;;;;;;;0.50;0.40;;;7.80;99.90;;;;;;5051239;28;20226;-76
2022/04/20 00:46:01;;;;;;;0.50;0.40;;;7.80;99.90;;;;;;5051227;28;20191;-76
2022/04/20 00:48:28;;;;;;;0.50;0.40;;;7.80;99.90;;;;;;5050970;28;20198;-76
2022/04/20 00:50:55;;;;;;;0.50;0.40;;;7.70;99.90;;;;;;5051504;28;20215;-76
2022/04/20 00:53:22;;;;;;;0.50;0.40;;;7.60;99.90;;;;;;5052283;28;20194;-77
2022/04/20 00:55:50;;;;;;;0.50;0.40;;;7.60;99.90;;;;;;5051695;28;20293;-76
2022/04/20 00:58:16;;;;;;;0.50;0.40;;;7.50;99.90;;;;;;5050745;28;20218;-76
2022/04/20 01:00:43;;;;;;;0.50;0.40;;;7.50;99.90;;;;;;5051277;28;20288;-77
2022/04/20 01:03:10;;;;;;;0.50;0.40;;;7.40;99.90;;;;;;5051611;28;20622;-76
2022/04/20 01:05:37;;;;;;;0.50;0.40;;;7.40;99.90;;;;;;5051414;28;20190;-77
2022/04/20 01:08:04;;;;;;;0.50;0.40;;;7.40;99.90;;;;;;5050830;28;20664;-76
2022/04/20 01:10:32;;;;;;;0.50;0.40;;;7.40;99.90;;;;;;5050556;28;20218;-77
2022/04/20 01:13:00;;;;;;;0.50;0.40;;;7.30;99.90;;;;;;5050942;28;20670;-77
2022/04/20 01:15:28;;;;;;;0.50;0.40;;;7.30;99.90;;;;;;5051326;28;20268;-77
2022/04/20 01:17:54;;;;;;;0.50;0.40;;;7.20;99.90;;;;;;5050848;28;20258;-76
2022/04/20 01:20:21;;;;;;;0.50;0.43;;;7.20;99.90;;;;;;5050647;28;20242;-77
2022/04/20 01:22:49;;;;;;;0.50;0.40;;;7.10;99.90;;;;;;5051609;28;20195;-77
2022/04/20 01:25:16;;;;;;;0.50;0.40;;;7.10;99.90;;;;;;5051287;28;20190;-77
2022/04/20 01:27:43;;;;;;;0.50;0.40;;;7.10;99.90;;;;;;5050805;28;20186;-76
2022/04/20 01:30:10;;;;;;;0.50;0.40;;;7.00;99.90;;;;;;5051273;28;20256;-77
2022/04/20 01:32:38;;;;;;;0.50;0.40;;;7.00;99.90;;;;;;5051079;28;20205;-77
2022/04/20 01:35:05;;;;;;;0.50;0.40;;;7.00;99.90;;;;;;5051241;28;20202;-77
2022/04/20 01:37:32;;;;;;;0.50;0.40;;;7.00;99.90;;;;;;5050489;28;20218;-76
2022/04/20 01:40:00;;;;;;;0.50;0.40;;;7.00;99.90;;;;;;5051183;28;20226;-76
2022/04/20 01:42:27;;;;;;;0.50;0.40;;;7.00;99.90;;;;;;5054180;28;20199;-77
2022/04/20 01:44:53;;;;;;;0.50;0.40;;;7.00;99.90;;;;;;5054693;28;20244;-76
2022/04/20 01:47:20;;;;;;;0.50;0.40;;;6.90;99.90;;;;;;5054786;28;20324;-76
2022/04/20 01:49:47;;;;;;;0.50;0.40;;;6.80;99.90;;;;;;5054750;28;20226;-75
2022/04/20 01:52:13;;;;;;;1.17;1.17;;;6.80;99.90;;;;;;5054628;28;20252;-77
2022/04/20 01:54:40;;;;;;;0.50;0.40;;;6.80;99.90;;;;;;5054303;28;20214;-76
2022/04/20 01:57:08;;;;;;;0.50;0.40;;;6.90;99.90;;;;;;5054644;28;20275;-76
2022/04/20 01:59:35;;;;;;;0.50;0.40;;;6.90;99.90;;;;;;5054319;28;20218;-77
2022/04/20 02:04:46;;;;;;;0.50;0.40;;;6.80;99.90;;;;;;5053887;28;20543;-74
2022/04/20 02:07:12;;;;;;;0.50;0.40;;;6.70;99.90;;;;;;5054611;28;20225;-77
2022/04/20 02:09:39;;;;;;;0.50;0.40;;;6.70;99.90;;;;;;5053957;28;20258;-76
2022/04/20 02:12:08;;;;;;;0.50;0.40;;;6.70;99.90;;;;;;5054681;28;20199;-76
2022/04/20 02:14:35;;;;;;;0.50;0.40;;;6.70;99.90;;;;;;5053904;28;20209;-77
2022/04/20 02:17:02;;;;;;;0.50;0.40;;;6.60;99.90;;;;;;5054440;28;20609;-77
2022/04/20 02:19:28;;;;;;;0.50;0.40;;;6.60;99.90;;;;;;5053839;28;20276;-76
2022/04/20 02:21:55;;;;;;;0.50;0.40;;;6.50;99.90;;;;;;5054436;28;20195;-77
2022/04/20 02:24:22;;;;;;;0.50;0.40;;;6.50;99.90;;;;;;5054278;28;20194;-77
2022/04/20 02:26:48;;;;;;;0.50;0.40;;;6.40;99.90;;;;;;5053979;28;20248;-73
2022/04/20 02:29:16;;;;;;;0.50;0.40;;;6.40;99.90;;;;;;5053392;28;20325;-77
2022/04/20 02:31:43;;;;;;;0.50;0.40;;;6.30;99.90;;;;;;5054299;28;20202;-77
2022/04/20 02:34:10;;;;;;;0.50;0.40;;;6.40;99.90;;;;;;5054011;28;20792;-76
2022/04/20 02:36:36;;;;;;;0.50;0.40;;;6.30;99.90;;;;;;5054211;28;20195;-77
2022/04/20 02:39:04;;;;;;;0.50;0.40;;;6.30;99.90;;;;;;5053278;28;20272;-77
2022/04/20 02:41:31;;;;;;;0.50;0.40;;;6.30;99.90;;;;;;5053705;28;20201;-77
2022/04/20 02:43:58;;;;;;;0.50;0.40;;;6.30;99.90;;;;;;5053852;28;20622;-76
2022/04/20 02:46:27;;;;;;;0.50;0.40;;;6.30;99.90;;;;;;5053950;28;20248;-78
2022/04/20 02:48:53;;;;;;;0.50;0.40;;;6.20;99.90;;;;;;5053064;28;20263;-76
2022/04/20 02:51:20;;;;;;;0.50;0.40;;;6.10;99.90;;;;;;5053529;28;20200;-75
2022/04/20 02:53:47;;;;;;;0.50;0.40;;;6.10;99.90;;;;;;5052493;28;20194;-76
2022/04/20 02:56:14;;;;;;;0.50;0.47;;;6.10;99.90;;;;;;5053909;28;20207;-78
2022/04/20 02:58:40;;;;;;;0.50;0.40;;;6.10;99.90;;;;;;5053106;28;20327;-77
2022/04/20 03:01:07;;;;;;;0.50;0.40;;;6.10;99.90;;;;;;5053351;28;20199;-77
2022/04/20 03:03:35;;;;;;;0.50;0.40;;;6.20;99.90;;;;;;5053603;28;20738;-76
2022/04/20 03:06:02;;;;;;;0.50;0.40;;;6.10;99.90;;;;;;5053344;28;20244;-78
2022/04/20 03:08:29;;;;;;;0.50;0.47;;;6.10;99.90;;;;;;5052225;28;20205;-76
2022/04/20 03:10:56;;;;;;;0.50;0.50;;;6.10;99.90;;;;;;5053254;28;20268;-76
2022/04/20 03:13:23;;;;;;;0.50;0.40;;;6.10;99.90;;;;;;5053594;28;20202;-77
2022/04/20 03:15:50;;;;;;;0.50;0.40;;;6.00;99.90;;;;;;5053206;28;20191;-76
2022/04/20 03:18:17;;;;;;;0.50;0.40;;;5.90;99.90;;;;;;5052772;28;20302;-77
2022/04/20 03:20:45;;;;;;;0.50;0.40;;;6.00;99.90;;;;;;5052860;28;20219;-77
2022/04/20 03:23:12;;;;;;;0.50;0.40;;;5.90;99.90;;;;;;5053114;28;20591;-76
2022/04/20 03:25:41;;;;;;;0.50;0.40;;;5.90;99.90;;;;;;5053145;28;20567;-76
2022/04/20 03:28:07;;;;;;;0.50;0.40;;;5.90;99.90;;;;;;5052756;28;20190;-78
2022/04/20 03:30:37;;;;;;;0.50;0.40;;;5.90;99.90;;;;;;5052574;28;20211;-76
2022/04/20 03:33:06;;;;;;;0.50;0.40;;;5.90;99.90;;;;;;5052971;28;20286;-76
2022/04/20 03:35:32;;;;;;;0.50;0.40;;;5.90;99.90;;;;;;5052741;28;20199;-77
2022/04/20 03:38:00;;;;;;;0.50;0.40;;;5.90;99.90;;;;;;5052513;28;20690;-74
2022/04/20 03:40:27;;;;;;;0.50;0.40;;;5.90;99.90;;;;;;5052741;28;20226;-76
2022/04/20 03:42:54;;;;;;;0.50;0.40;;;5.90;99.90;;;;;;5052425;28;20256;-76
2022/04/20 03:45:20;;;;;;;0.50;0.40;;;5.90;99.90;;;;;;5052590;28;20227;-76
2022/04/20 03:47:47;;;;;;;0.50;0.40;;;5.90;99.90;;;;;;5052322;28;20190;-76
2022/04/20 03:50:14;;;;;;;0.50;0.40;;;5.80;99.90;;;;;;5052152;28;20219;-77
2022/04/20 03:52:40;;;;;;;0.50;0.40;;;5.80;99.90;;;;;;5052206;28;20679;-77
2022/04/20 03:55:09;;;;;;;0.50;0.40;;;5.80;99.90;;;;;;5052616;28;20220;-76
2022/04/20 03:57:35;;;;;;;0.50;0.40;;;5.70;99.90;;;;;;5051493;28;20714;-78
2022/04/20 04:00:03;;;;;;;0.50;0.45;;;5.60;99.90;;;;;;5052100;28;20260;-76
2022/04/20 04:02:30;;;;;;;0.50;0.40;;;5.60;99.90;;;;;;5052594;28;20198;-79
2022/04/20 04:04:57;;;;;;;0.50;0.40;;;5.60;99.90;;;;;;5051829;28;20202;-77
2022/04/20 04:07:23;;;;;;;0.50;0.50;;;5.50;99.90;;;;;;5051775;28;20198;-75
2022/04/20 04:09:50;;;;;;;0.50;0.40;;;5.50;99.90;;;;;;5052042;28;20214;-78
2022/04/20 04:12:22;;;;;;;0.50;0.40;;;5.50;99.90;;;;;;5052327;28;20663;-76
2022/04/20 04:14:49;;;;;;;1.85;0.95;;;5.40;99.90;;;;;;5051935;28;20289;-76
2022/04/20 04:17:15;;;;;;;0.50;0.40;;;5.40;99.90;;;;;;5051825;28;20248;-76
2022/04/20 04:19:42;;;;;;;0.50;0.40;;;5.40;99.90;;;;;;5051908;28;20218;-76
2022/04/20 04:22:09;;;;;;;0.50;0.50;;;5.30;99.90;;;;;;5052009;28;20194;-77
2022/04/20 04:24:35;;;;;;;0.50;0.40;;;5.30;99.90;;;;;;5051821;28;20632;-77
2022/04/20 04:27:03;;;;;;;0.50;0.40;;;5.30;99.90;;;;;;5051528;28;20198;-77
2022/04/20 04:29:32;;;;;;;0.50;0.40;;;5.40;99.90;;;;;;5050892;28;20711;-77
2022/04/20 04:31:59;;;;;;;0.50;0.50;;;5.40;99.90;;;;;;5051800;28;20280;-77
2022/04/20 04:34:26;;;;;;;0.50;0.50;;;5.30;99.90;;;;;;5051935;28;20701;-77
2022/04/20 04:36:54;;;;;;;0.50;0.40;;;5.30;99.90;;;;;;5051886;28;20286;-76
2022/04/20 04:39:21;;;;;;;0.50;0.40;;;5.30;99.90;;;;;;5051403;28;20263;-77
2022/04/20 04:41:48;;;;;;;0.50;0.50;;;5.40;99.90;;;;;;5051707;28;20866;-76
2022/04/20 04:44:16;;;;;;;1.08;1.08;;;5.40;99.90;;;;;;5051670;28;20234;-76
2022/04/20 04:49:29;;;;;;;0.50;0.40;;;5.40;99.90;;;;;;5051659;28;20229;-76
2022/04/20 04:51:56;;;;;;;0.88;0.88;;;5.50;99.90;;;;;;5052159;28;20599;-76
2022/04/20 04:54:23;;;;;;;0.50;0.40;;;5.50;99.90;;;;;;5051720;28;20288;-75
2022/04/20 04:56:50;;;;;;;0.50;0.40;;;5.50;99.90;;;;;;5051992;28;20664;-75
2022/04/20 04:59:17;;;;;;;2.25;2.15;;;5.50;99.90;;;;;;5051070;28;20642;-76
2022/04/20 05:01:45;;;;;;;0.50;0.43;;;5.50;99.90;;;;;;5051788;28;20217;-74
2022/04/20 05:04:12;;;;;;;0.50;0.40;;;5.60;99.90;;;;;;5051344;28;20201;-78
2022/04/20 05:06:38;;;;;;;0.50;0.40;;;5.60;99.90;;;;;;5051151;28;20203;-76
2022/04/20 05:09:05;;;;;;;0.50;0.50;;;5.70;99.90;;;;;;5050727;28;20214;-76
2022/04/20 05:11:32;;;;;;;0.50;0.40;;;5.90;99.90;;;;;;5051285;28;20221;-76
2022/04/20 05:13:58;;;;;;;0.50;0.40;;;6.00;99.90;;;;;;5051069;28;20202;-78
2022/04/20 05:16:25;;;;;;;0.50;0.40;;;6.20;99.90;;;;;;5052927;28;20651;-76
2022/04/20 05:18:53;;;;;;;0.50;0.40;;;6.30;99.90;;;;;;5054806;28;20214;-77
2022/04/20 05:21:20;;;;;;;0.50;0.40;;;6.40;99.90;;;;;;5055318;28;20286;-77
2022/04/20 05:23:46;;;;;;;0.50;0.40;;;6.60;99.90;;;;;;5055421;28;20281;-75
2022/04/20 05:26:13;;;;;;;0.50;0.40;;;6.70;99.90;;;;;;5055450;28;20202;-77
2022/04/20 05:28:40;;;;;;;3.80;3.60;;;6.80;99.90;;;;;;5055442;28;20725;-78
2022/04/20 05:31:06;;;;;;;1.35;1.35;;;6.90;99.90;;;;;;5055264;28;20195;-77
2022/04/20 05:33:34;;;;;;;0.50;0.50;;;7.10;99.90;;;;;;5055613;28;20198;-77
2022/04/20 05:36:02;;;;;;;0.50;0.40;;;7.20;99.90;;;;;;5055329;28;20289;-77
2022/04/20 05:41:40;;;;;;;0.50;0.40;;;7.50;99.90;;;;;;5054634;28;20193;-76
2022/04/20 05:44:07;;;;;;;0.50;0.40;;;8.30;99.90;;;;;;5053087;28;20197;-78
2022/04/20 05:46:34;;;;;;;0.52;0.50;;;10.00;99.90;;;;;;5054325;28;20652;-76
2022/04/20 05:49:01;;;;;;;0.50;0.40;;;11.30;99.90;;;;;;5054173;28;20311;-78
2022/04/20 05:51:29;;;;;;;0.75;0.75;;;12.60;99.90;;;;;;5054353;28;20248;-78
2022/04/20 05:53:56;;;;;;;0.50;0.40;;;13.70;99.90;;;;;;5054833;28;20260;-77
2022/04/20 05:56:22;;;;;;;0.60;0.60;;;14.80;99.90;;;;;;5054351;28;20202;-78
2022/04/20 05:58:50;;;;;;;0.50;0.40;;;15.80;94.00;;;;;;5052886;28;20563;-78
2022/04/20 06:01:17;;;;;;;0.50;0.40;;;16.60;88.90;;;;;;5052909;28;20552;-78
2022/04/20 06:03:45;;;;;;;0.53;0.37;;;16.90;79.80;;;;;;5053743;28;20472;-77
2022/04/20 06:06:12;;;;;;;0.50;0.33;;;17.40;76.00;;;;;;5054180;28;20438;-79
2022/04/20 06:08:40;;;;;;;0.50;0.40;;;18.00;75.50;;;;;;5053430;28;20858;-78
2022/04/20 06:11:06;;;;;;;0.50;0.40;;;19.00;71.20;;;;;;5054234;28;20441;-78
2022/04/20 06:13:33;;;;;;;1.33;1.33;;;19.90;66.80;;;;;;5054090;28;20440;-77
2022/04/20 06:16:00;;;;;;;0.50;0.30;;;20.70;61.40;;;;;;5053841;28;20444;-77
2022/04/20 06:18:26;;;;;;;0.50;0.30;;;20.50;58.50;;;;;;5053963;28;20480;-78
2022/04/20 06:20:53;;;;;;;0.50;0.30;;;20.50;58.10;;;;;;5053951;28;20514;-78
2022/04/20 06:23:22;;;;;;;0.50;0.30;;;20.80;57.80;;;;;;5054121;28;20445;-77
2022/04/20 06:25:53;;;;;;;0.80;0.80;;;21.10;55.80;;;;;;5053898;28;20953;-78
2022/04/20 06:28:20;;;;;;;0.60;0.60;;;21.10;55.50;;;;;;5053367;28;20468;-77
2022/04/20 06:30:46;;;;;;;0.53;0.47;;;21.30;55.60;;;;;;5053617;28;20519;-76
2022/04/20 06:33:13;;;;;;;0.50;0.30;;;22.10;56.10;;;;;;5053902;28;20441;-77
2022/04/20 06:35:40;;;;;;;0.50;0.30;;;22.70;55.00;;;;;;5053730;28;20531;-78
2022/04/20 06:38:06;;;;;;;0.50;0.30;;;23.50;55.10;;;;;;5053632;28;20437;-78
2022/04/20 06:40:33;;;;;;;0.50;0.40;;;24.10;52.80;;;;;;5053912;28;20534;-77
2022/04/20 06:43:01;;;;;;;0.50;0.40;;;24.50;52.10;;;;;;5053534;28;21150;-78
2022/04/20 06:45:28;;;;;;;0.50;0.30;;;25.50;50.40;;;;;;5053933;28;20528;-78
2022/04/20 06:47:59;;;;;;;0.50;0.30;;;26.00;48.50;;;;;;5053254;28;20441;-77
2022/04/20 06:50:26;;;;;;;1.00;0.60;;;26.30;47.50;;;;;;5052802;28;20471;-78
2022/04/20 06:58:36;;;;;;;0.60;0.60;;;26.20;46.00;;;;;;5045642;28;20412;-77
2022/04/20 07:01:07;;;;;;;0.50;0.30;;;26.20;46.20;;;;;;5053722;28;20524;-78
2022/04/20 07:03:34;;;;;;;0.50;0.30;;;26.90;45.60;;;;;;5041803;28;20835;-78
2022/04/20 07:06:02;;;;;;;0.50;0.30;;;27.80;46.40;;;;;;5033664;28;20512;-78
2022/04/20 07:08:29;;;;;;;0.50;0.30;;;29.00;44.60;;;;;;5032886;28;20784;-78
2022/04/20 07:10:56;;;;;;;0.50;0.30;;;29.60;44.50;;;;;;5033525;28;20441;-79
2022/04/20 07:13:24;;;;;;;0.50;0.30;;;30.50;44.10;;;;;;5033567;28;20524;-78
2022/04/20 07:15:51;;;;;;;0.50;0.30;;;31.10;40.50;;;;;;5033750;28;20472;-79
2022/04/20 07:18:18;;;;;;;0.50;0.30;;;31.30;40.40;;;;;;5035090;28;20441;-79
2022/04/20 07:20:45;;;;;;;0.50;0.40;;;30.60;41.00;;;;;;5033914;28;20434;-80
2022/04/20 07:23:12;;;;;;;0.50;0.30;;;30.60;41.40;;;;;;5033756;28;20461;-75
2022/04/20 07:25:38;;;;;;;0.50;0.30;;;31.00;41.80;;;;;;5034879;28;20442;-78
2022/04/20 07:28:05;;;;;;;0.50;0.30;;;31.50;39.70;;;;;;5034215;28;20497;-79
2022/04/20 07:30:34;;;;;;;0.50;0.30;;;31.30;39.20;;;;;;5033745;28;20521;-79
2022/04/20 07:33:01;;;;;;;0.50;0.30;;;31.20;38.80;;;;;;5034398;28;20465;-79
2022/04/20 07:35:28;;;;;;;0.60;0.50;;;30.80;38.60;;;;;;5033137;28;20500;-79
2022/04/20 07:37:55;;;;;;;0.50;0.40;;;30.70;40.90;;;;;;5034222;28;20446;-77
2022/04/20 07:40:22;;;;;;;1.10;0.70;;;30.90;38.60;;;;;;5032416;28;20478;-75
2022/04/20 07:42:53;;;;;;;0.50;0.30;;;30.30;39.00;;;;;;5033184;28;20462;-79
2022/04/20 07:45:20;;;;;;;0.50;0.30;;;30.00;39.00;;;;;;5033197;28;20878;-79
2022/04/20 07:47:48;;;;;;;0.50;0.40;;;29.90;39.10;;;;;;5032675;28;20492;-79
2022/04/20 07:50:23;;;;;;;0.60;0.40;;;29.70;40.00;;;;;;5031919;28;20442;-75
2022/04/20 07:52:51;;;;;;;0.50;0.30;;;29.70;39.60;;;;;;5032416;28;20572;-78
2022/04/20 07:55:20;;;;;;;0.80;0.80;;;29.70;38.50;;;;;;5032657;28;20448;-77
2022/04/20 07:57:47;;;;;;;0.60;0.60;;;29.70;39.10;;;;;;5031981;28;20541;-79
2022/04/20 08:00:15;;;;;;;0.50;0.30;;;29.40;40.50;;;;;;5032688;28;20503;-79
2022/04/20 08:02:42;;;;;;;0.50;0.30;;;30.30;40.50;;;;;;5032809;28;20854;-79
2022/04/20 08:05:12;;;;;;;0.50;0.40;;;31.00;39.10;;;;;;5032922;28;20446;-79
2022/04/20 08:07:39;;;;;;;0.50;0.30;;;31.50;38.60;;;;;;5032799;28;20442;-78
2022/04/20 08:10:08;;;;;;;0.50;0.50;;;32.30;38.10;;;;;;5032940;28;20442;-78
2022/04/20 08:12:36;;;;;;;0.50;0.30;;;32.50;37.10;;;;;;5032221;28;20454;-78
2022/04/20 08:15:04;;;;;;;1.17;1.13;;;32.30;37.70;;;;;;5032448;28;20442;-77
2022/04/20 08:17:31;;;;;;;0.50;0.30;;;32.20;36.20;;;;;;5032162;28;20529;-77
2022/04/20 08:19:58;;;;;;;0.50;0.40;;;31.60;37.90;;;;;;5031499;28;21082;-77
2022/04/20 08:22:27;;;;;;;0.43;0.30;;;31.90;37.80;;;;;;5031581;28;20440;-78
2022/04/20 08:24:54;;;;;;;0.50;0.30;;;32.40;38.10;;;;;;5032831;28;20789;-78
2022/04/20 08:27:22;;;;;;;0.50;0.40;;;33.10;36.70;;;;;;5032607;28;20437;-78
2022/04/20 08:29:49;;;;;;;0.50;0.30;;;32.40;35.50;;;;;;5032091;28;20499;-79
2022/04/20 08:32:16;;;;;;;0.50;0.30;;;32.80;37.80;;;;;;5031834;28;20515;-78
2022/04/20 08:34:43;;;;;;;0.97;0.50;;;33.10;35.60;;;;;;5031328;28;20881;-78
2022/04/20 08:37:10;;;;;;;2.27;2.07;;;32.50;34.50;;;;;;5032580;28;20873;-77
2022/04/20 08:39:39;;;;;;;0.93;0.93;;;31.20;35.20;;;;;;5031521;28;20474;-78
2022/04/20 08:42:07;;;;;;;0.50;0.30;;;31.10;36.40;;;;;;5031242;28;21003;-78
2022/04/20 08:44:37;;;;;;;0.50;0.30;;;30.80;36.30;;;;;;5030950;28;20497;-78
2022/04/20 08:47:07;;;;;;;0.50;0.30;;;31.60;37.30;;;;;;5031813;28;20658;-77
2022/04/20 08:49:34;;;;;;;0.50;0.30;;;31.00;36.60;;;;;;5030892;28;20442;-78
2022/04/20 08:54:48;;;;;;;0.50;0.30;;;32.40;36.60;;;;;;5031648;28;20402;-79
2022/04/20 08:57:18;;;;;;;0.50;0.30;;;32.30;35.60;;;;;;5031105;28;20434;-76
2022/04/20 08:59:47;;;;;;;0.50;0.30;;;32.10;35.40;;;;;;5030388;28;20480;-76
2022/04/20 09:02:13;;;;;;;0.50;0.40;;;32.40;36.50;;;;;;5031495;28;20537;-78
2022/04/20 09:04:41;;;;;;;0.50;0.30;;;32.90;35.40;;;;;;5031719;28;20449;-78
2022/04/20 09:07:08;;;;;;;0.50;0.30;;;33.50;36.00;;;;;;5031383;28;20532;-80
2022/04/20 09:09:35;;;;;;;0.50;0.30;;;34.10;35.60;;;;;;5030676;28;20807;-79
2022/04/20 09:12:07;;;;;;;0.50;0.30;;;33.30;33.40;;;;;;5031690;28;20445;-80
2022/04/20 09:14:34;;;;;;;0.50;0.30;;;30.40;35.00;;;;;;5031525;28;20462;-78
2022/04/20 09:17:02;;;;;;;0.50;0.30;;;30.30;35.90;;;;;;5031237;28;20885;-78
2022/04/20 09:19:29;;;;;;;0.50;0.30;;;30.90;38.30;;;;;;5030873;28;20676;-75
2022/04/20 09:21:57;;;;;;;0.50;0.30;;;31.90;38.00;;;;;;5030911;28;20442;-76
2022/04/20 09:24:23;;;;;;;0.50;0.30;;;32.30;37.20;;;;;;5031371;28;20850;-77
2022/04/20 09:26:52;;;;;;;0.50;0.30;;;31.90;37.50;;;;;;5031446;28;20456;-76
2022/04/20 09:29:21;;;;;;;0.50;0.30;;;32.00;35.90;;;;;;5031364;28;20441;-77
2022/04/20 09:31:49;;;;;;;0.50;0.30;;;32.10;35.70;;;;;;5030897;28;20822;-78
2022/04/20 09:34:35;;;;;;;0.50;0.30;;;33.00;37.00;;;;;;5031255;28;20465;-77
2022/04/20 09:37:14;;;;;;;0.50;0.30;;;33.60;34.90;;;;;;5031580;28;20915;-78
2022/04/20 09:39:46;;;;;;;1.07;0.93;;;32.70;34.10;;;;;;5030851;28;20473;-79
2022/04/20 09:42:13;;;;;;;0.50;0.30;;;32.40;34.90;;;;;;5031244;28;20437;-77
2022/04/20 09:44:53;;;;;;;0.60;0.40;;;31.90;37.20;;;;;;5031223;28;20446;-77
2022/04/20 09:50:07;;;;;;;0.50;0.40;;;30.90;36.70;;;;;;5031002;28;20544;-78
2022/04/20 09:52:39;;;;;;;0.50;0.30;;;31.50;36.50;;;;;;5029805;28;21009;-79
2022/04/20 09:55:06;;;;;;;0.50;0.30;;;32.30;36.80;;;;;;5030721;28;20931;-78
2022/04/20 09:57:36;;;;;;;0.50;0.30;;;32.40;36.80;;;;;;5030680;28;20919;-78
2022/04/20 10:00:08;;;;;;;0.50;0.30;;;32.90;37.70;;;;;;5031284;28;20565;-78
2022/04/20 10:02:38;;;;;;;0.50;0.30;;;33.00;34.60;;;;;;5032165;28;20540;-79
2022/04/20 10:05:05;;;;;;;0.50;0.30;;;32.70;35.10;;;;;;5034883;28;20448;-77
2022/04/20 10:07:32;;;;;;;0.50;0.30;;;32.60;36.90;;;;;;5034785;28;20520;-78
2022/04/20 10:09:59;;;;;;;0.50;0.30;;;33.10;36.50;;;;;;5034104;28;20564;-78
2022/04/20 10:12:30;;;;;;;0.50;0.30;;;32.50;34.70;;;;;;5034169;28;20438;-77
2022/04/20 10:17:47;;;;;;;0.50;0.30;;;31.30;38.90;;;;;;5034264;28;20476;-78
2022/04/20 10:20:14;;;;;;;0.50;0.30;;;31.00;37.30;;;;;;5034630;28;20477;-78
2022/04/20 10:22:42;;;;;;;0.50;0.30;;;31.50;36.00;;;;;;5034088;28;20979;-78
2022/04/20 10:25:09;;;;;;;0.50;0.30;;;31.00;34.90;;;;;;5034550;28;20450;-78
2022/04/20 10:27:49;;;;;;;0.50;0.30;;;30.70;36.20;;;;;;5033588;28;20870;-77
2022/04/20 10:30:20;;;;;;;0.50;0.30;;;30.80;36.70;;;;;;5034445;28;20418;-75
2022/04/20 10:32:53;;;;;;;0.50;0.30;;;31.40;36.80;;;;;;5034376;28;20885;-78
2022/04/20 10:35:21;;;;;;;0.50;0.30;;;31.70;36.70;;;;;;5038507;28;20472;-77
2022/04/20 10:38:07;;;;;;;0.50;0.50;;;31.90;35.00;;;;;;5034176;28;20446;-77
2022/04/20 10:40:34;;;;;;;0.50;0.30;;;31.40;35.60;;;;;;5039371;28;20512;-79
2022/04/20 10:43:20;;;;;;;0.50;0.30;;;30.80;35.10;;;;;;5038921;28;20466;-75
2022/04/20 10:46:04;;;;;;;0.50;0.30;;;30.10;37.70;;;;;;5036314;28;20446;-76
2022/04/20 10:48:44;;;;;;;0.60;0.50;;;30.40;37.00;;;;;;5034867;28;20507;-77
2022/04/20 10:51:14;;;;;;;0.50;0.50;;;30.50;36.30;;;;;;5034441;28;20910;-78
2022/04/20 10:53:41;;;;;;;0.50;0.30;;;30.70;39.60;;;;;;5033954;28;20478;-79
2022/04/20 10:56:08;;;;;;;0.70;0.60;;;30.90;37.30;;;;;;5034185;28;20448;-79
2022/04/20 10:58:35;;;;;;;0.50;0.30;;;30.40;35.10;;;;;;5032858;28;20438;-79
2022/04/20 11:01:10;;;;;;;0.50;0.30;;;29.70;37.70;;;;;;5033049;28;20572;-79
2022/04/20 11:04:03;;;;;;;0.50;0.30;;;29.90;36.50;;;;;;5033768;28;20461;-79
2022/04/20 11:07:08;;;;;;;0.50;0.30;;;29.40;37.90;;;;;;5033173;28;20426;-79
2022/04/20 11:10:08;;;;;;;0.57;0.50;;;29.60;36.80;;;;;;5032731;28;20441;-80
2022/04/20 11:18:42;;;;;;;0.50;0.30;;;28.60;39.20;;;;;;5032357;28;20397;-76
2022/04/20 11:21:21;;;;;;;0.50;0.30;;;28.90;41.30;;;;;;5032983;28;20981;-76
2022/04/20 11:24:06;;;;;;;0.50;0.30;;;29.70;38.50;;;;;;5033090;28;20540;-77
2022/04/20 11:26:37;;;;;;;0.50;0.30;;;29.70;37.50;;;;;;5033854;28;20480;-79
2022/04/20 11:29:10;;;;;;;0.50;0.30;;;28.80;36.00;;;;;;5032449;28;20457;-78
2022/04/20 11:31:38;;;;;;;0.60;0.60;;;29.00;37.10;;;;;;5032657;28;20810;-78
2022/04/20 11:34:06;;;;;;;1.80;1.70;;;27.90;37.20;;;;;;5032302;28;21022;-77
2022/04/20 11:36:33;;;;;;;0.50;0.30;;;27.90;38.30;;;;;;5014553;28;20517;-78
2022/04/20 11:39:01;;;;;;;0.50;0.40;;;28.10;38.90;;;;;;5031333;28;20496;-78
2022/04/20 11:41:28;;;;;;;1.03;0.97;;;27.90;37.40;;;;;;5032494;28;20553;-75
2022/04/20 11:43:58;;;;;;;0.67;0.67;;;27.80;37.80;;;;;;5032273;28;20462;-77
2022/04/20 11:46:24;;;;;;;0.50;0.30;;;26.70;38.20;;;;;;5032988;28;20496;-78
2022/04/20 11:48:53;;;;;;;0.50;0.30;;;26.00;39.00;;;;;;5031004;28;20784;-77
2022/04/20 11:51:23;;;;;;;0.50;0.40;;;26.10;39.40;;;;;;5031920;28;20955;-77
2022/04/20 11:53:50;;;;;;;0.50;0.40;;;25.80;38.80;;;;;;5017136;28;87058;-79
2022/04/20 11:56:17;;;;;;;0.67;0.57;;;26.00;41.00;;;;;;5028780;28;20480;-77
2022/04/20 11:58:49;;;;;;;0.50;0.30;;;26.20;39.70;;;;;;5032251;28;20804;-78
2022/04/20 12:01:18;;;;;;;0.50;0.30;;;26.60;39.80;;;;;;5032105;28;20505;-77
2022/04/20 12:03:45;;;;;;;0.77;0.77;;;27.10;40.00;;;;;;5032646;28;20533;-78
2022/04/20 12:06:12;;;;;;;0.50;0.37;;;27.60;41.30;;;;;;5032506;28;20492;-77
2022/04/20 12:08:41;;;;;;;1.03;0.90;;;28.50;43.30;;;;;;5031946;28;20492;-78
2022/04/20 12:11:09;;;;;;;0.50;0.30;;;28.70;40.20;;;;;;5032294;28;20472;-77
2022/04/20 12:13:36;;;;;;;0.60;0.60;;;28.20;39.90;;;;;;5032038;28;20504;-77
2022/04/20 12:16:04;;;;;;;0.50;0.30;;;28.60;41.40;;;;;;5032220;28;20449;-77
2022/04/20 12:18:35;;;;;;;0.50;0.37;;;28.50;41.00;;;;;;5031843;28;20858;-76
2022/04/20 12:21:03;;;;;;;0.90;0.63;;;28.80;39.60;;;;;;5032052;28;20512;-78
2022/04/20 12:23:34;;;;;;;0.50;0.40;;;27.80;38.40;;;;;;5032203;28;20507;-77
2022/04/20 12:26:04;;;;;;;0.50;0.30;;;27.30;39.70;;;;;;5032106;28;20434;-78
2022/04/20 12:28:43;;;;;;;0.60;0.47;;;27.60;40.80;;;;;;5032237;28;20476;-78
2022/04/20 12:31:12;;;;;;;0.70;0.57;;;27.60;41.30;;;;;;5031926;28;20446;-76
2022/04/20 12:33:41;;;;;;;0.50;0.30;;;27.50;39.70;;;;;;5031536;28;20474;-78
2022/04/20 12:36:10;;;;;;;0.50;0.40;;;27.30;39.90;;;;;;5031681;28;20442;-78
2022/04/20 12:38:44;;;;;;;0.50;0.30;;;27.80;41.20;;;;;;5031025;28;20868;-80
2022/04/20 12:41:41;;;;;;;0.50;0.30;;;28.20;39.90;;;;;;5031856;28;20481;-78
2022/04/20 12:44:40;;;;;;;0.50;0.30;;;28.00;40.90;;;;;;5031846;28;20725;-78
2022/04/20 12:47:32;;;;;;;0.50;0.40;;;28.50;41.90;;;;;;5031718;28;20441;-77
2022/04/20 12:50:16;;;;;;;0.50;0.30;;;28.70;41.20;;;;;;5022702;28;21008;-75
2022/04/20 12:52:50;;;;;;;0.50;0.40;;;29.10;41.00;;;;;;5031122;28;20477;-78
2022/04/20 12:55:17;;;;;;;0.50;0.37;;;29.50;39.10;;;;;;5032751;28;20421;-76
2022/04/20 13:03:31;;;;;;;0.50;0.30;;;27.20;39.80;;;;;;5031295;28;20437;-78
2022/04/20 13:05:59;;;;;;;0.50;0.30;;;27.10;40.60;;;;;;5030929;28;20822;-78
2022/04/20 13:08:26;;;;;;;0.50;0.30;;;26.50;41.00;;;;;;5031321;28;20850;-78
2022/04/20 13:10:52;;;;;;;0.50;0.30;;;26.80;42.10;;;;;;5031462;28;20808;-78
2022/04/20 13:13:23;;;;;;;0.60;0.40;;;26.50;42.60;;;;;;5030991;28;20508;-77
2022/04/20 13:15:50;;;;;;;0.50;0.30;;;27.40;42.50;;;;;;5030651;28;20441;-78
2022/04/20 13:18:16;;;;;;;0.50;0.30;;;28.00;42.60;;;;;;5031825;28;20446;-79
2022/04/20 13:20:43;;;;;;;0.50;0.30;;;27.80;42.00;;;;;;5031995;28;20477;-78
2022/04/20 13:23:11;;;;;;;0.50;0.30;;;27.70;41.90;;;;;;5032174;28;20469;-78
2022/04/20 13:28:22;;;;;;;0.60;0.60;;;28.20;41.30;;;;;;5031304;28;20449;-74
2022/04/20 13:30:49;;;;;;;0.50;0.40;;;28.50;41.70;;;;;;5031614;28;20438;-77
2022/04/20 13:33:17;;;;;;;0.50;0.30;;;28.80;42.10;;;;;;5032152;28;20469;-74
2022/04/20 13:35:47;;;;;;;1.40;0.93;;;28.90;41.30;;;;;;5031427;28;20476;-76